• Join FlightAware (Why Join?)
  • Login
  • US Flag 
04:49PM EDT


 

Airport Tracker/Info


-or-


 

Live Flight TrackerFlight Track Log ✈ N89ST ✈ 15-Aug-2013 ✈ KMOT - KBJI

Flight Track Log - Related Links

Times and Time Zones

All times are in EDT time to prevent confusion due to time zone crossing. See the N89ST flight status page for this flight to view local times or setup timezone preferences in your user account.

Time Position Orientation Groundspeed Altitude Reporting Facility
EDT Latitude Longitude Course Direction KTS MPH feet Rate Location/Type
05:28PM 48.2087 -100.7416 98° East  Level Estimated
05:29PM 48.2003 -100.6523 98° East  Level Estimated
05:29PM 48.2197 -100.8400 98° East 161 185 10,700  Level Minneapolis Center
05:30PM 48.1919 -100.5630 98° East  Level Estimated
05:30PM 48.2064 -100.7586 104° East 192 221 11,800  Level Minneapolis Center
05:31PM 48.1833 -100.4737 98° East  Level Estimated
05:31PM 48.2008 -100.6844 96° East 183 211 12,900  Level Minneapolis Center
05:32PM 48.1748 -100.3845 98° East  Level Estimated
05:32PM 48.1933 -100.6244 101° East 182 209 13,700  Level Minneapolis Center
05:33PM 48.1661 -100.2953 98° East  Level Estimated
05:34PM 48.1573 -100.2062 98° East  Level Estimated
05:34PM 48.1856 -100.5325 97° East 185 213 15,000  Level Minneapolis Center
05:35PM 48.1485 -100.1171 98° East  Level Estimated
05:35PM 48.1808 -100.4717 97° East 185 213 15,700  Level Minneapolis Center
05:36PM 48.1703 -100.3783 100° East 189 217 16,900 1,020 Climbing Minneapolis Center
05:37PM 48.1603 -100.2839 99° East 190 219 17,900 840 Climbing Minneapolis Center
05:38PM 48.1544 -100.2039 96° East 193 222 18,800 780 Climbing Minneapolis Center
05:39PM 48.1486 -100.1200 96° East 199 229 19,600 780 Climbing Minneapolis Center
05:40PM 48.1372 -100.0356 101° East 205 236 20,500 780 Climbing Minneapolis Center
05:41PM 48.1286 -99.9511 99° East 206 237 21,300 780 Climbing Minneapolis Center
05:42PM 48.1197 -99.8653 99° East 208 239 22,100 720 Climbing Minneapolis Center
05:43PM 48.1089 -99.7586 99° East 215 247 22,800 420 Climbing Minneapolis Center
05:44PM 48.0989 -99.6639 99° East 226 260 23,000 60 Climbing Minneapolis Center
05:45PM 48.0889 -99.5617 98° East 242 278 23,000  Level Minneapolis Center
05:46PM 48.0808 -99.4522 96° East 257 296 23,000  Level Minneapolis Center
05:47PM 48.0694 -99.3436 99° East 263 303 23,000  Level Minneapolis Center
05:48PM 48.0564 -99.2369 100° East 263 303 23,000  Level Minneapolis Center
05:49PM 48.0431 -99.1067 99° East 264 304 23,000  Level Minneapolis Center
05:50PM 48.0317 -98.9994 99° East 263 303 23,000  Level Minneapolis Center
05:51PM 48.0194 -98.8928 100° East 261 300 23,000  Level Minneapolis Center
05:52PM 48.0081 -98.7853 99° East 261 300 23,000  Level Minneapolis Center
05:53PM 47.9964 -98.6811 99° East 258 297 23,000  Level Minneapolis Center
05:54PM 47.9836 -98.5772 100° East 257 296 23,000  Level Minneapolis Center
05:55PM 47.9694 -98.4511 99° East 256 295 23,000  Level Minneapolis Center
05:56PM 47.9578 -98.3469 99° East 256 295 23,000  Level Minneapolis Center
05:57PM 47.9450 -98.2411 100° East 258 297 23,000  Level Minneapolis Center
05:58PM 47.9333 -98.1386 100° East 254 292 23,000  Level Minneapolis Center
05:59PM 47.9214 -98.0342 100° East 254 292 23,000  Level Minneapolis Center
06:01PM 47.9078 -97.9289 101° East 256 295 23,000  Level Minneapolis Center
06:02PM 47.8903 -97.7825 100° East 256 295 23,000  Level Minneapolis Center
06:03PM 47.8778 -97.6778 100° East 256 295 23,000  Level Minneapolis Center
06:04PM 47.8650 -97.5739 100° East 255 293 23,000  Level Minneapolis Center
06:05PM 47.8528 -97.4708 100° East 254 292 23,000  Level Minneapolis Center
06:06PM 47.8403 -97.3667 100° East 254 292 23,000  Level Minneapolis Center
06:07PM 47.8272 -97.2636 101° East 254 292 23,000  Level Minneapolis Center
06:08PM 47.8147 -97.1603 100° East 254 292 23,000  Level Minneapolis Center
06:09PM 47.7989 -97.0378 101° East 253 291 23,000  Level Minneapolis Center
06:10PM 47.7858 -96.9361 101° East 252 290 23,000  Level Minneapolis Center
06:12PM 47.7597 -96.7319 101° East 252 290 23,000  Level Minneapolis Center
06:13PM 47.7458 -96.6306 101° East 251 289 23,000  Level Minneapolis Center
06:14PM 47.7328 -96.5275 101° East 253 291 23,000 -120 Level Minneapolis Center
06:15PM 47.7167 -96.4056 101° East 253 291 22,800 -720 Descending Minneapolis Center
06:16PM 47.6994 -96.2806 102° East 257 296 21,400 -1,260 Descending Minneapolis Center
06:17PM 47.6861 -96.1781 101° East 254 292 20,200 -1,140 Descending Minneapolis Center
06:18PM 47.6733 -96.0789 101° East 249 287 19,000 -1,020 Descending Minneapolis Center
06:19PM 47.6619 -96.0008 102° East 246 283 18,100 -1,320 Descending Minneapolis Center
06:21PM 47.6433 -95.8669 102° East 239 275 16,300 -1,560 Descending Minneapolis Center
06:22PM 47.6300 -95.7733 102° East 235 270 14,900 -1,380 Descending Minneapolis Center
06:23PM 47.6181 -95.6817 101° East 230 265 13,500 -1,380 Descending Minneapolis Center
06:24PM 47.6050 -95.5931 102° East 224 258 12,100 -1,380 Descending Minneapolis Center
06:25PM 47.5908 -95.5047 103° East 221 254 10,700 -1,500 Descending Minneapolis Center
06:26PM 47.5792 -95.4044 100° East 214 246 9,100 -1,500 Descending Minneapolis Center
06:27PM 47.5650 -95.3208 104° East 211 243 7,600 -1,440 Descending Minneapolis Center